sensor_id;sensor_type;location;lat;lon;timestamp;temperature;humidity
46085;DHT22;31823;47.032;8.310;2024-03-29T00:00:55;3.60;99.90
46085;DHT22;31823;47.032;8.310;2024-03-29T00:03:21;3.50;99.90
46085;DHT22;31823;47.032;8.310;2024-03-29T00:05:46;3.60;99.90
46085;DHT22;31823;47.032;8.310;2024-03-29T00:08:12;3.40;99.90
46085;DHT22;31823;47.032;8.310;2024-03-29T00:10:38;3.60;99.90
46085;DHT22;31823;47.032;8.310;2024-03-29T00:13:04;3.40;99.90
46085;DHT22;31823;47.032;8.310;2024-03-29T00:15:32;3.40;99.90
46085;DHT22;31823;47.032;8.310;2024-03-29T00:17:57;3.40;99.90
46085;DHT22;31823;47.032;8.310;2024-03-29T00:20:23;3.60;99.90
46085;DHT22;31823;47.032;8.310;2024-03-29T00:22:49;3.50;99.90
46085;DHT22;31823;47.032;8.310;2024-03-29T00:25:14;3.50;99.90
46085;DHT22;31823;47.032;8.310;2024-03-29T00:27:40;3.30;99.90
46085;DHT22;31823;47.032;8.310;2024-03-29T00:30:06;3.30;99.90
46085;DHT22;31823;47.032;8.310;2024-03-29T00:32:32;3.30;99.90
46085;DHT22;31823;47.032;8.310;2024-03-29T00:34:57;3.20;99.90
46085;DHT22;31823;47.032;8.310;2024-03-29T00:37:24;3.10;99.90
46085;DHT22;31823;47.032;8.310;2024-03-29T00:39:49;3.10;99.90
46085;DHT22;31823;47.032;8.310;2024-03-29T00:42:15;3.10;99.90
46085;DHT22;31823;47.032;8.310;2024-03-29T00:44:42;3.00;99.90
46085;DHT22;31823;47.032;8.310;2024-03-29T00:47:08;3.10;99.90
46085;DHT22;31823;47.032;8.310;2024-03-29T00:49:34;3.00;99.90
46085;DHT22;31823;47.032;8.310;2024-03-29T00:52:00;2.90;99.90
46085;DHT22;31823;47.032;8.310;2024-03-29T00:54:26;3.00;99.90
46085;DHT22;31823;47.032;8.310;2024-03-29T00:56:52;2.90;99.90
46085;DHT22;31823;47.032;8.310;2024-03-29T00:59:18;2.90;99.90
46085;DHT22;31823;47.032;8.310;2024-03-29T01:01:44;2.80;99.90
46085;DHT22;31823;47.032;8.310;2024-03-29T01:04:10;2.90;99.90
46085;DHT22;31823;47.032;8.310;2024-03-29T01:06:37;2.90;99.90
46085;DHT22;31823;47.032;8.310;2024-03-29T01:09:03;2.90;99.90
46085;DHT22;31823;47.032;8.310;2024-03-29T01:11:30;2.80;99.90
46085;DHT22;31823;47.032;8.310;2024-03-29T01:13:56;2.70;99.90
46085;DHT22;31823;47.032;8.310;2024-03-29T01:16:21;2.70;99.90
46085;DHT22;31823;47.032;8.310;2024-03-29T01:18:47;2.70;99.90
46085;DHT22;31823;47.032;8.310;2024-03-29T01:21:13;2.60;99.90
46085;DHT22;31823;47.032;8.310;2024-03-29T01:23:39;2.80;99.90
46085;DHT22;31823;47.032;8.310;2024-03-29T01:26:06;2.80;99.90
46085;DHT22;31823;47.032;8.310;2024-03-29T01:28:31;2.70;99.90
46085;DHT22;31823;47.032;8.310;2024-03-29T01:30:57;2.60;99.90
46085;DHT22;31823;47.032;8.310;2024-03-29T01:33:24;2.70;99.90
46085;DHT22;31823;47.032;8.310;2024-03-29T01:35:50;2.90;99.90
46085;DHT22;31823;47.032;8.310;2024-03-29T01:38:16;3.10;99.90
46085;DHT22;31823;47.032;8.310;2024-03-29T01:40:41;3.00;99.90
46085;DHT22;31823;47.032;8.310;2024-03-29T01:43:07;2.90;99.90
46085;DHT22;31823;47.032;8.310;2024-03-29T01:45:35;3.00;99.90
46085;DHT22;31823;47.032;8.310;2024-03-29T01:48:04;3.00;99.90
46085;DHT22;31823;47.032;8.310;2024-03-29T01:50:30;3.10;99.90
46085;DHT22;31823;47.032;8.310;2024-03-29T01:52:56;3.10;99.90
46085;DHT22;31823;47.032;8.310;2024-03-29T01:55:22;3.20;99.90
46085;DHT22;31823;47.032;8.310;2024-03-29T01:57:47;3.20;99.90
46085;DHT22;31823;47.032;8.310;2024-03-29T02:00:14;3.10;99.90
46085;DHT22;31823;47.032;8.310;2024-03-29T02:02:40;3.20;99.90
46085;DHT22;31823;47.032;8.310;2024-03-29T02:05:05;3.40;99.90
46085;DHT22;31823;47.032;8.310;2024-03-29T02:07:31;3.20;99.90
46085;DHT22;31823;47.032;8.310;2024-03-29T02:09:57;3.10;99.90
46085;DHT22;31823;47.032;8.310;2024-03-29T02:12:23;3.00;99.90
46085;DHT22;31823;47.032;8.310;2024-03-29T02:14:49;2.90;99.90
46085;DHT22;31823;47.032;8.310;2024-03-29T02:17:14;2.80;99.90
46085;DHT22;31823;47.032;8.310;2024-03-29T02:19:40;2.80;99.90
46085;DHT22;31823;47.032;8.310;2024-03-29T02:22:06;2.90;99.90
46085;DHT22;31823;47.032;8.310;2024-03-29T02:24:33;2.90;99.90
46085;DHT22;31823;47.032;8.310;2024-03-29T02:26:59;2.90;99.90
46085;DHT22;31823;47.032;8.310;2024-03-29T02:29:25;3.00;99.90
46085;DHT22;31823;47.032;8.310;2024-03-29T02:31:50;3.10;99.90
46085;DHT22;31823;47.032;8.310;2024-03-29T02:34:16;3.10;99.90
46085;DHT22;31823;47.032;8.310;2024-03-29T02:36:42;3.10;99.90
46085;DHT22;31823;47.032;8.310;2024-03-29T02:39:09;3.10;99.90
46085;DHT22;31823;47.032;8.310;2024-03-29T02:41:35;3.00;99.90
46085;DHT22;31823;47.032;8.310;2024-03-29T02:44:01;3.10;99.90
46085;DHT22;31823;47.032;8.310;2024-03-29T02:46:26;3.00;99.90
46085;DHT22;31823;47.032;8.310;2024-03-29T02:48:52;3.00;99.90
46085;DHT22;31823;47.032;8.310;2024-03-29T02:51:17;3.10;99.90
46085;DHT22;31823;47.032;8.310;2024-03-29T02:53:43;3.00;99.90
46085;DHT22;31823;47.032;8.310;2024-03-29T02:56:09;2.80;99.90
46085;DHT22;31823;47.032;8.310;2024-03-29T02:58:35;2.80;99.90
46085;DHT22;31823;47.032;8.310;2024-03-29T03:01:10;2.80;99.90
46085;DHT22;31823;47.032;8.310;2024-03-29T03:03:36;2.90;99.90
46085;DHT22;31823;47.032;8.310;2024-03-29T03:06:02;2.80;99.90
46085;DHT22;31823;47.032;8.310;2024-03-29T03:08:29;2.70;99.90
46085;DHT22;31823;47.032;8.310;2024-03-29T03:11:13;2.70;99.90
46085;DHT22;31823;47.032;8.310;2024-03-29T03:13:39;2.80;99.90
46085;DHT22;31823;47.032;8.310;2024-03-29T03:16:05;2.60;99.90
46085;DHT22;31823;47.032;8.310;2024-03-29T03:18:31;2.60;99.90
46085;DHT22;31823;47.032;8.310;2024-03-29T03:20:57;2.60;99.90
46085;DHT22;31823;47.032;8.310;2024-03-29T03:23:25;2.60;99.90
46085;DHT22;31823;47.032;8.310;2024-03-29T03:25:58;2.70;99.90
46085;DHT22;31823;47.032;8.310;2024-03-29T03:28:24;2.60;99.90
46085;DHT22;31823;47.032;8.310;2024-03-29T03:30:51;2.60;99.90
46085;DHT22;31823;47.032;8.310;2024-03-29T03:33:17;2.80;99.90
46085;DHT22;31823;47.032;8.310;2024-03-29T03:35:43;2.70;99.90
46085;DHT22;31823;47.032;8.310;2024-03-29T03:38:12;2.60;99.90
46085;DHT22;31823;47.032;8.310;2024-03-29T03:40:38;2.60;99.90
46085;DHT22;31823;47.032;8.310;2024-03-29T03:43:05;2.80;99.90
46085;DHT22;31823;47.032;8.310;2024-03-29T03:45:35;2.70;99.90
46085;DHT22;31823;47.032;8.310;2024-03-29T03:48:05;2.60;99.90
46085;DHT22;31823;47.032;8.310;2024-03-29T03:50:31;2.60;99.90
46085;DHT22;31823;47.032;8.310;2024-03-29T03:52:57;2.60;99.90
46085;DHT22;31823;47.032;8.310;2024-03-29T03:55:23;2.60;99.90
46085;DHT22;31823;47.032;8.310;2024-03-29T03:57:48;2.70;99.90
46085;DHT22;31823;47.032;8.310;2024-03-29T04:00:14;2.60;99.90
46085;DHT22;31823;47.032;8.310;2024-03-29T04:02:40;2.60;99.90
46085;DHT22;31823;47.032;8.310;2024-03-29T04:05:06;2.60;99.90
46085;DHT22;31823;47.032;8.310;2024-03-29T04:07:32;2.60;99.90
46085;DHT22;31823;47.032;8.310;2024-03-29T04:09:58;2.60;99.90
46085;DHT22;31823;47.032;8.310;2024-03-29T04:12:23;2.80;99.90
46085;DHT22;31823;47.032;8.310;2024-03-29T04:14:49;2.80;99.90
46085;DHT22;31823;47.032;8.310;2024-03-29T04:17:15;2.80;99.90
46085;DHT22;31823;47.032;8.310;2024-03-29T04:19:40;2.70;99.90
46085;DHT22;31823;47.032;8.310;2024-03-29T04:22:06;2.70;99.90
46085;DHT22;31823;47.032;8.310;2024-03-29T04:24:31;2.80;99.90
46085;DHT22;31823;47.032;8.310;2024-03-29T04:26:57;2.70;99.90
46085;DHT22;31823;47.032;8.310;2024-03-29T04:29:23;2.70;99.90
46085;DHT22;31823;47.032;8.310;2024-03-29T04:31:48;2.60;99.90
46085;DHT22;31823;47.032;8.310;2024-03-29T04:34:14;2.70;99.90
46085;DHT22;31823;47.032;8.310;2024-03-29T04:36:40;2.60;99.90
46085;DHT22;31823;47.032;8.310;2024-03-29T04:39:05;2.60;99.90
46085;DHT22;31823;47.032;8.310;2024-03-29T04:41:32;2.60;99.90
46085;DHT22;31823;47.032;8.310;2024-03-29T04:44:03;2.60;99.90
46085;DHT22;31823;47.032;8.310;2024-03-29T04:46:30;2.80;99.90
46085;DHT22;31823;47.032;8.310;2024-03-29T04:48:57;2.80;99.90
46085;DHT22;31823;47.032;8.310;2024-03-29T04:51:22;2.90;99.90
46085;DHT22;31823;47.032;8.310;2024-03-29T04:53:48;3.00;99.90
46085;DHT22;31823;47.032;8.310;2024-03-29T04:56:14;3.10;99.90
46085;DHT22;31823;47.032;8.310;2024-03-29T04:58:39;3.20;99.90
46085;DHT22;31823;47.032;8.310;2024-03-29T05:01:05;3.40;99.90
46085;DHT22;31823;47.032;8.310;2024-03-29T05:03:30;3.70;99.90
46085;DHT22;31823;47.032;8.310;2024-03-29T05:05:56;3.80;99.90
46085;DHT22;31823;47.032;8.310;2024-03-29T05:08:22;3.80;99.90
46085;DHT22;31823;47.032;8.310;2024-03-29T05:10:51;3.60;99.90
46085;DHT22;31823;47.032;8.310;2024-03-29T05:13:17;3.30;99.90
46085;DHT22;31823;47.032;8.310;2024-03-29T05:15:45;3.40;99.90
46085;DHT22;31823;47.032;8.310;2024-03-29T05:18:11;3.60;99.90
46085;DHT22;31823;47.032;8.310;2024-03-29T05:20:36;3.50;99.90
46085;DHT22;31823;47.032;8.310;2024-03-29T05:23:02;3.40;99.90
46085;DHT22;31823;47.032;8.310;2024-03-29T05:25:31;3.30;99.90
46085;DHT22;31823;47.032;8.310;2024-03-29T05:27:57;3.40;99.90
46085;DHT22;31823;47.032;8.310;2024-03-29T05:30:22;3.30;99.90
46085;DHT22;31823;47.032;8.310;2024-03-29T05:32:49;3.40;99.90
46085;DHT22;31823;47.032;8.310;2024-03-29T05:35:15;3.30;99.90
46085;DHT22;31823;47.032;8.310;2024-03-29T05:37:41;3.30;99.90
46085;DHT22;31823;47.032;8.310;2024-03-29T05:40:08;3.30;99.90
46085;DHT22;31823;47.032;8.310;2024-03-29T05:42:34;3.60;99.90
46085;DHT22;31823;47.032;8.310;2024-03-29T05:45:01;3.50;99.90
46085;DHT22;31823;47.032;8.310;2024-03-29T05:47:27;3.60;99.90
46085;DHT22;31823;47.032;8.310;2024-03-29T05:49:53;3.60;99.90
46085;DHT22;31823;47.032;8.310;2024-03-29T05:52:19;3.60;99.90
46085;DHT22;31823;47.032;8.310;2024-03-29T05:54:46;3.60;99.90
46085;DHT22;31823;47.032;8.310;2024-03-29T05:57:12;3.60;99.90
46085;DHT22;31823;47.032;8.310;2024-03-29T05:59:38;3.80;99.90
46085;DHT22;31823;47.032;8.310;2024-03-29T06:02:04;3.90;99.90
46085;DHT22;31823;47.032;8.310;2024-03-29T06:04:30;4.00;99.90
46085;DHT22;31823;47.032;8.310;2024-03-29T06:07:02;4.10;99.90
46085;DHT22;31823;47.032;8.310;2024-03-29T06:09:27;4.30;99.90
46085;DHT22;31823;47.032;8.310;2024-03-29T06:11:54;4.40;99.90
46085;DHT22;31823;47.032;8.310;2024-03-29T06:14:20;4.50;99.90
46085;DHT22;31823;47.032;8.310;2024-03-29T06:17:04;4.60;99.90
46085;DHT22;31823;47.032;8.310;2024-03-29T06:19:51;4.70;99.90
46085;DHT22;31823;47.032;8.310;2024-03-29T06:22:20;4.80;99.90
46085;DHT22;31823;47.032;8.310;2024-03-29T06:24:46;5.00;99.90
46085;DHT22;31823;47.032;8.310;2024-03-29T06:27:13;5.00;99.90
46085;DHT22;31823;47.032;8.310;2024-03-29T06:29:43;5.10;99.90
46085;DHT22;31823;47.032;8.310;2024-03-29T06:32:08;5.20;99.90
46085;DHT22;31823;47.032;8.310;2024-03-29T06:34:34;5.30;99.90
46085;DHT22;31823;47.032;8.310;2024-03-29T06:36:59;5.50;99.90
46085;DHT22;31823;47.032;8.310;2024-03-29T06:39:25;5.70;99.90
46085;DHT22;31823;47.032;8.310;2024-03-29T06:41:53;5.80;99.90
46085;DHT22;31823;47.032;8.310;2024-03-29T06:44:19;5.90;99.90
46085;DHT22;31823;47.032;8.310;2024-03-29T06:46:46;6.00;99.90
46085;DHT22;31823;47.032;8.310;2024-03-29T06:49:12;6.00;99.90
46085;DHT22;31823;47.032;8.310;2024-03-29T06:51:39;6.10;99.90
46085;DHT22;31823;47.032;8.310;2024-03-29T06:54:05;6.10;99.90
46085;DHT22;31823;47.032;8.310;2024-03-29T06:56:31;6.10;99.90
46085;DHT22;31823;47.032;8.310;2024-03-29T06:58:56;6.30;99.90
46085;DHT22;31823;47.032;8.310;2024-03-29T07:01:22;6.40;99.90
46085;DHT22;31823;47.032;8.310;2024-03-29T07:03:47;6.50;99.90
46085;DHT22;31823;47.032;8.310;2024-03-29T07:06:13;6.60;99.90
46085;DHT22;31823;47.032;8.310;2024-03-29T07:08:39;6.70;99.90
46085;DHT22;31823;47.032;8.310;2024-03-29T07:11:04;6.80;99.90
46085;DHT22;31823;47.032;8.310;2024-03-29T07:13:30;7.00;99.90
46085;DHT22;31823;47.032;8.310;2024-03-29T07:16:00;7.30;99.90
46085;DHT22;31823;47.032;8.310;2024-03-29T07:18:25;7.40;99.90
46085;DHT22;31823;47.032;8.310;2024-03-29T07:20:51;7.50;99.90
46085;DHT22;31823;47.032;8.310;2024-03-29T07:23:17;7.70;99.90
46085;DHT22;31823;47.032;8.310;2024-03-29T07:25:58;7.70;99.90
46085;DHT22;31823;47.032;8.310;2024-03-29T07:28:25;7.80;99.90
46085;DHT22;31823;47.032;8.310;2024-03-29T07:30:50;7.60;99.90
46085;DHT22;31823;47.032;8.310;2024-03-29T07:33:17;7.40;99.90
46085;DHT22;31823;47.032;8.310;2024-03-29T07:35:43;7.40;99.90
46085;DHT22;31823;47.032;8.310;2024-03-29T07:38:08;7.70;99.90
46085;DHT22;31823;47.032;8.310;2024-03-29T07:40:34;8.00;99.90
46085;DHT22;31823;47.032;8.310;2024-03-29T07:43:00;8.00;99.90
46085;DHT22;31823;47.032;8.310;2024-03-29T07:45:26;8.20;99.90
46085;DHT22;31823;47.032;8.310;2024-03-29T07:47:53;8.10;99.50
46085;DHT22;31823;47.032;8.310;2024-03-29T07:50:19;8.20;99.80
46085;DHT22;31823;47.032;8.310;2024-03-29T07:52:45;8.40;99.90
46085;DHT22;31823;47.032;8.310;2024-03-29T07:55:11;8.30;99.10
46085;DHT22;31823;47.032;8.310;2024-03-29T07:57:36;8.40;98.80
46085;DHT22;31823;47.032;8.310;2024-03-29T08:00:03;8.40;99.00
46085;DHT22;31823;47.032;8.310;2024-03-29T08:02:29;8.40;99.00
46085;DHT22;31823;47.032;8.310;2024-03-29T08:04:55;8.40;98.80
46085;DHT22;31823;47.032;8.310;2024-03-29T08:07:21;8.40;99.50
46085;DHT22;31823;47.032;8.310;2024-03-29T08:09:46;8.50;99.90
46085;DHT22;31823;47.032;8.310;2024-03-29T08:12:12;8.50;99.30
46085;DHT22;31823;47.032;8.310;2024-03-29T08:14:38;8.60;99.10
46085;DHT22;31823;47.032;8.310;2024-03-29T08:17:03;8.60;98.10
46085;DHT22;31823;47.032;8.310;2024-03-29T08:19:33;8.80;98.40
46085;DHT22;31823;47.032;8.310;2024-03-29T08:21:59;8.90;98.50
46085;DHT22;31823;47.032;8.310;2024-03-29T08:24:26;9.00;97.50
46085;DHT22;31823;47.032;8.310;2024-03-29T08:26:52;9.10;98.60
46085;DHT22;31823;47.032;8.310;2024-03-29T08:29:17;9.20;98.80
46085;DHT22;31823;47.032;8.310;2024-03-29T08:31:43;9.20;98.90
46085;DHT22;31823;47.032;8.310;2024-03-29T08:34:09;9.20;99.00
46085;DHT22;31823;47.032;8.310;2024-03-29T08:36:38;9.30;99.00
46085;DHT22;31823;47.032;8.310;2024-03-29T08:39:04;9.50;99.20
46085;DHT22;31823;47.032;8.310;2024-03-29T08:41:30;9.70;99.90
46085;DHT22;31823;47.032;8.310;2024-03-29T08:43:56;9.80;99.90
46085;DHT22;31823;47.032;8.310;2024-03-29T08:46:21;9.90;99.90
46085;DHT22;31823;47.032;8.310;2024-03-29T08:48:48;9.80;99.90
46085;DHT22;31823;47.032;8.310;2024-03-29T08:51:13;9.80;99.90
46085;DHT22;31823;47.032;8.310;2024-03-29T08:53:40;9.60;99.90
46085;DHT22;31823;47.032;8.310;2024-03-29T08:56:06;9.60;99.90
46085;DHT22;31823;47.032;8.310;2024-03-29T08:58:31;9.70;99.90
46085;DHT22;31823;47.032;8.310;2024-03-29T09:00:57;9.60;99.90
46085;DHT22;31823;47.032;8.310;2024-03-29T09:03:23;9.60;99.90
46085;DHT22;31823;47.032;8.310;2024-03-29T09:05:49;10.00;99.90
46085;DHT22;31823;47.032;8.310;2024-03-29T09:08:16;10.20;99.90
46085;DHT22;31823;47.032;8.310;2024-03-29T09:10:42;10.50;99.90
46085;DHT22;31823;47.032;8.310;2024-03-29T09:13:07;10.70;99.30
46085;DHT22;31823;47.032;8.310;2024-03-29T09:15:34;10.60;99.30
46085;DHT22;31823;47.032;8.310;2024-03-29T09:18:00;10.90;98.90
46085;DHT22;31823;47.032;8.310;2024-03-29T09:20:36;11.20;98.30
46085;DHT22;31823;47.032;8.310;2024-03-29T09:23:03;11.20;98.20
46085;DHT22;31823;47.032;8.310;2024-03-29T09:25:28;11.00;98.60
46085;DHT22;31823;47.032;8.310;2024-03-29T09:27:55;11.10;98.60
46085;DHT22;31823;47.032;8.310;2024-03-29T09:30:21;11.20;99.00
46085;DHT22;31823;47.032;8.310;2024-03-29T09:32:47;11.60;97.50
46085;DHT22;31823;47.032;8.310;2024-03-29T09:35:15;11.50;97.00
46085;DHT22;31823;47.032;8.310;2024-03-29T09:37:40;12.00;98.00
46085;DHT22;31823;47.032;8.310;2024-03-29T09:40:09;12.20;97.10
46085;DHT22;31823;47.032;8.310;2024-03-29T09:42:35;12.20;97.80
46085;DHT22;31823;47.032;8.310;2024-03-29T09:45:05;12.30;97.50
46085;DHT22;31823;47.032;8.310;2024-03-29T09:47:31;12.50;97.80
46085;DHT22;31823;47.032;8.310;2024-03-29T09:50:00;12.90;96.80
46085;DHT22;31823;47.032;8.310;2024-03-29T09:52:28;13.30;97.60
46085;DHT22;31823;47.032;8.310;2024-03-29T09:54:55;13.40;97.30
46085;DHT22;31823;47.032;8.310;2024-03-29T09:57:21;13.30;96.40
46085;DHT22;31823;47.032;8.310;2024-03-29T09:59:47;13.00;95.90
46085;DHT22;31823;47.032;8.310;2024-03-29T10:02:16;13.00;94.30
46085;DHT22;31823;47.032;8.310;2024-03-29T10:04:46;12.80;95.20
46085;DHT22;31823;47.032;8.310;2024-03-29T10:07:14;12.90;94.80
46085;DHT22;31823;47.032;8.310;2024-03-29T10:09:42;13.20;93.50
46085;DHT22;31823;47.032;8.310;2024-03-29T10:12:08;14.20;95.00
46085;DHT22;31823;47.032;8.310;2024-03-29T10:14:46;14.20;92.80
46085;DHT22;31823;47.032;8.310;2024-03-29T10:17:18;14.40;93.90
46085;DHT22;31823;47.032;8.310;2024-03-29T10:19:45;14.60;92.70
46085;DHT22;31823;47.032;8.310;2024-03-29T10:22:10;14.90;94.00
46085;DHT22;31823;47.032;8.310;2024-03-29T10:24:37;14.80;93.80
46085;DHT22;31823;47.032;8.310;2024-03-29T10:27:03;14.50;92.30
46085;DHT22;31823;47.032;8.310;2024-03-29T10:29:29;14.30;93.00
46085;DHT22;31823;47.032;8.310;2024-03-29T10:31:58;14.30;92.50
46085;DHT22;31823;47.032;8.310;2024-03-29T10:34:26;14.30;92.30
46085;DHT22;31823;47.032;8.310;2024-03-29T10:36:53;14.60;92.10
46085;DHT22;31823;47.032;8.310;2024-03-29T10:39:18;15.00;91.80
46085;DHT22;31823;47.032;8.310;2024-03-29T10:41:47;15.40;92.00
46085;DHT22;31823;47.032;8.310;2024-03-29T10:44:15;15.40;92.70
46085;DHT22;31823;47.032;8.310;2024-03-29T10:46:41;15.70;92.70
46085;DHT22;31823;47.032;8.310;2024-03-29T10:49:08;15.60;92.60
46085;DHT22;31823;47.032;8.310;2024-03-29T10:51:39;15.80;92.60
46085;DHT22;31823;47.032;8.310;2024-03-29T10:54:07;16.10;92.30
46085;DHT22;31823;47.032;8.310;2024-03-29T10:56:34;15.90;93.30
46085;DHT22;31823;47.032;8.310;2024-03-29T10:59:08;16.20;92.40
46085;DHT22;31823;47.032;8.310;2024-03-29T11:01:38;16.50;92.30
46085;DHT22;31823;47.032;8.310;2024-03-29T11:04:12;16.20;91.80
46085;DHT22;31823;47.032;8.310;2024-03-29T11:06:38;16.10;91.40
46085;DHT22;31823;47.032;8.310;2024-03-29T11:09:10;16.50;91.20
46085;DHT22;31823;47.032;8.310;2024-03-29T11:11:38;16.80;91.80
46085;DHT22;31823;47.032;8.310;2024-03-29T11:14:11;16.60;91.70
46085;DHT22;31823;47.032;8.310;2024-03-29T11:16:39;17.00;92.10
46085;DHT22;31823;47.032;8.310;2024-03-29T11:19:12;17.70;90.90
46085;DHT22;31823;47.032;8.310;2024-03-29T11:21:40;17.30;90.30
46085;DHT22;31823;47.032;8.310;2024-03-29T11:24:08;17.60;91.30
46085;DHT22;31823;47.032;8.310;2024-03-29T11:26:35;17.30;92.30
46085;DHT22;31823;47.032;8.310;2024-03-29T11:29:00;17.30;93.70
46085;DHT22;31823;47.032;8.310;2024-03-29T11:31:27;17.10;91.30
46085;DHT22;31823;47.032;8.310;2024-03-29T11:33:53;17.20;91.70
46085;DHT22;31823;47.032;8.310;2024-03-29T11:36:28;17.70;93.00
46085;DHT22;31823;47.032;8.310;2024-03-29T11:38:57;18.60;89.60
46085;DHT22;31823;47.032;8.310;2024-03-29T11:41:24;18.90;90.30
46085;DHT22;31823;47.032;8.310;2024-03-29T11:43:51;18.80;88.60
46085;DHT22;31823;47.032;8.310;2024-03-29T11:46:17;18.60;90.30
46085;DHT22;31823;47.032;8.310;2024-03-29T11:48:44;18.70;90.70
46085;DHT22;31823;47.032;8.310;2024-03-29T11:51:13;18.80;90.70
46085;DHT22;31823;47.032;8.310;2024-03-29T11:53:43;18.90;90.10
46085;DHT22;31823;47.032;8.310;2024-03-29T11:56:09;19.00;88.70
46085;DHT22;31823;47.032;8.310;2024-03-29T11:58:37;19.00;90.20
46085;DHT22;31823;47.032;8.310;2024-03-29T12:01:03;19.00;91.10
46085;DHT22;31823;47.032;8.310;2024-03-29T12:03:29;19.00;88.90
46085;DHT22;31823;47.032;8.310;2024-03-29T12:05:57;19.00;88.80
46085;DHT22;31823;47.032;8.310;2024-03-29T12:08:31;19.10;86.20
46085;DHT22;31823;47.032;8.310;2024-03-29T12:11:02;19.60;87.10
46085;DHT22;31823;47.032;8.310;2024-03-29T12:13:28;19.90;88.80
46085;DHT22;31823;47.032;8.310;2024-03-29T12:15:55;20.10;85.30
46085;DHT22;31823;47.032;8.310;2024-03-29T12:18:21;20.20;85.20
46085;DHT22;31823;47.032;8.310;2024-03-29T12:20:51;20.60;81.30
46085;DHT22;31823;47.032;8.310;2024-03-29T12:23:19;21.10;80.30
46085;DHT22;31823;47.032;8.310;2024-03-29T12:25:45;20.80;84.10
46085;DHT22;31823;47.032;8.310;2024-03-29T12:28:12;20.30;82.70
46085;DHT22;31823;47.032;8.310;2024-03-29T12:30:40;20.10;82.30
46085;DHT22;31823;47.032;8.310;2024-03-29T12:33:08;20.10;83.00
46085;DHT22;31823;47.032;8.310;2024-03-29T12:35:37;19.70;85.40
46085;DHT22;31823;47.032;8.310;2024-03-29T12:38:04;19.30;87.10
46085;DHT22;31823;47.032;8.310;2024-03-29T12:40:31;18.80;84.20
46085;DHT22;31823;47.032;8.310;2024-03-29T12:43:06;18.70;80.20
46085;DHT22;31823;47.032;8.310;2024-03-29T12:45:38;18.50;88.00
46085;DHT22;31823;47.032;8.310;2024-03-29T12:48:12;18.90;87.70
46085;DHT22;31823;47.032;8.310;2024-03-29T12:50:41;19.00;88.40
46085;DHT22;31823;47.032;8.310;2024-03-29T12:53:08;18.90;83.70
46085;DHT22;31823;47.032;8.310;2024-03-29T12:55:34;18.70;86.20
46085;DHT22;31823;47.032;8.310;2024-03-29T12:58:05;18.90;86.40
46085;DHT22;31823;47.032;8.310;2024-03-29T13:00:33;19.20;81.70
46085;DHT22;31823;47.032;8.310;2024-03-29T13:02:59;19.20;82.50
46085;DHT22;31823;47.032;8.310;2024-03-29T13:05:25;19.00;83.00
46085;DHT22;31823;47.032;8.310;2024-03-29T13:07:51;19.30;86.90
46085;DHT22;31823;47.032;8.310;2024-03-29T13:10:17;19.60;84.40
46085;DHT22;31823;47.032;8.310;2024-03-29T13:12:47;19.60;86.50
46085;DHT22;31823;47.032;8.310;2024-03-29T13:15:19;20.20;87.10
46085;DHT22;31823;47.032;8.310;2024-03-29T13:17:46;19.60;85.90
46085;DHT22;31823;47.032;8.310;2024-03-29T13:20:13;19.20;85.90
46085;DHT22;31823;47.032;8.310;2024-03-29T13:22:43;19.20;88.10
46085;DHT22;31823;47.032;8.310;2024-03-29T13:25:14;19.00;84.70
46085;DHT22;31823;47.032;8.310;2024-03-29T13:27:41;18.90;86.20
46085;DHT22;31823;47.032;8.310;2024-03-29T13:30:08;18.80;86.00
46085;DHT22;31823;47.032;8.310;2024-03-29T13:32:38;18.70;89.60
46085;DHT22;31823;47.032;8.310;2024-03-29T13:35:05;18.60;86.60
46085;DHT22;31823;47.032;8.310;2024-03-29T13:37:32;18.30;86.50
46085;DHT22;31823;47.032;8.310;2024-03-29T13:39:58;18.30;86.20
46085;DHT22;31823;47.032;8.310;2024-03-29T13:42:23;18.30;86.50
46085;DHT22;31823;47.032;8.310;2024-03-29T13:44:50;18.00;86.80
46085;DHT22;31823;47.032;8.310;2024-03-29T13:47:16;18.10;87.20
46085;DHT22;31823;47.032;8.310;2024-03-29T13:49:43;17.70;87.80
46085;DHT22;31823;47.032;8.310;2024-03-29T13:52:09;17.70;88.60
46085;DHT22;31823;47.032;8.310;2024-03-29T13:54:34;17.70;88.90
46085;DHT22;31823;47.032;8.310;2024-03-29T13:57:01;17.60;88.10
46085;DHT22;31823;47.032;8.310;2024-03-29T13:59:29;17.50;89.00
46085;DHT22;31823;47.032;8.310;2024-03-29T14:01:55;17.50;90.00
46085;DHT22;31823;47.032;8.310;2024-03-29T14:04:20;17.60;90.10
46085;DHT22;31823;47.032;8.310;2024-03-29T14:06:46;17.60;90.30
46085;DHT22;31823;47.032;8.310;2024-03-29T14:09:11;17.50;89.80
46085;DHT22;31823;47.032;8.310;2024-03-29T14:11:37;17.50;88.60
46085;DHT22;31823;47.032;8.310;2024-03-29T14:14:03;17.40;90.10
46085;DHT22;31823;47.032;8.310;2024-03-29T14:16:32;17.30;88.50
46085;DHT22;31823;47.032;8.310;2024-03-29T14:18:58;17.30;89.90
46085;DHT22;31823;47.032;8.310;2024-03-29T14:21:23;17.60;90.30
46085;DHT22;31823;47.032;8.310;2024-03-29T14:23:49;17.80;88.80
46085;DHT22;31823;47.032;8.310;2024-03-29T14:26:14;17.90;85.20
46085;DHT22;31823;47.032;8.310;2024-03-29T14:28:47;17.90;90.20
46085;DHT22;31823;47.032;8.310;2024-03-29T14:31:13;17.80;88.50
46085;DHT22;31823;47.032;8.310;2024-03-29T14:33:38;17.70;85.00
46085;DHT22;31823;47.032;8.310;2024-03-29T14:36:04;17.70;87.40
46085;DHT22;31823;47.032;8.310;2024-03-29T14:38:30;17.40;89.60
46085;DHT22;31823;47.032;8.310;2024-03-29T14:40:56;17.40;90.90
46085;DHT22;31823;47.032;8.310;2024-03-29T14:43:21;17.10;90.90
46085;DHT22;31823;47.032;8.310;2024-03-29T14:45:49;17.20;89.80
46085;DHT22;31823;47.032;8.310;2024-03-29T14:48:17;17.10;91.10
46085;DHT22;31823;47.032;8.310;2024-03-29T14:50:43;17.10;90.80
46085;DHT22;31823;47.032;8.310;2024-03-29T14:53:09;17.20;89.40
46085;DHT22;31823;47.032;8.310;2024-03-29T14:55:35;17.20;87.30
46085;DHT22;31823;47.032;8.310;2024-03-29T14:58:05;17.00;90.50
46085;DHT22;31823;47.032;8.310;2024-03-29T15:00:30;17.10;91.10
46085;DHT22;31823;47.032;8.310;2024-03-29T15:02:56;17.10;91.00
46085;DHT22;31823;47.032;8.310;2024-03-29T15:05:23;17.10;90.20
46085;DHT22;31823;47.032;8.310;2024-03-29T15:07:51;17.10;90.40
46085;DHT22;31823;47.032;8.310;2024-03-29T15:10:17;17.00;90.70
46085;DHT22;31823;47.032;8.310;2024-03-29T15:12:47;16.90;91.30
46085;DHT22;31823;47.032;8.310;2024-03-29T15:15:13;17.00;90.40
46085;DHT22;31823;47.032;8.310;2024-03-29T15:17:38;16.90;92.00
46085;DHT22;31823;47.032;8.310;2024-03-29T15:20:05;16.80;92.40
46085;DHT22;31823;47.032;8.310;2024-03-29T15:22:37;16.80;91.10
46085;DHT22;31823;47.032;8.310;2024-03-29T15:25:04;16.90;91.50
46085;DHT22;31823;47.032;8.310;2024-03-29T15:27:30;16.90;91.30
46085;DHT22;31823;47.032;8.310;2024-03-29T15:30:14;16.90;91.40
46085;DHT22;31823;47.032;8.310;2024-03-29T15:32:40;16.90;92.60
46085;DHT22;31823;47.032;8.310;2024-03-29T15:35:06;16.90;91.30
46085;DHT22;31823;47.032;8.310;2024-03-29T15:37:32;16.80;92.50